Emma Bardán — ECJU — position and weather

sailwx.info

Track history (hours):
 
Tides and Currents Weather Stations Pressure Air Temp Water Temp Dewpoint Dewpoint Depression Visibility Wind Speed Wind Dir Waves Ship Positions

Oceanographic research ship Emma Bardán (Spain)

Ship's website: http://www.mapa.es/es/pesca/pags/emma_web/index.htm

Last reported at 2017-Aug-17 01:23 UTC. Time now 2017-Aug-17 01:41 UTC.
Position N 36°44' W 008°51'.

Length 29 m; draft 3.7 m.

Type: . MMSI: 224756000.

Date/timePositionNaut miles runAvg speedWind from/ knotsBaromVisibWave heightAir tempDewpointWater temp
2017-Aug-17 01:23N 36°44' W 008°51'410.4
2017-Aug-17 01:00N 36°44' W 008°46'1010.8
2017-Aug-17 00:06N 36°44' W 008°34'110.2
2017-Aug-16 23:59N 36°44' W 008°32'510.8
2017-Aug-16 23:31N 36°44' W 008°26'610.9
2017-Aug-16 23:00N 36°44' W 008°19'610.8
2017-Aug-16 22:27N 36°44' W 008°12'710.9
2017-Aug-16 21:46N 36°44' W 008°02'310.6
2017-Aug-16 21:30N 36°44' W 007°59'130 9.9
2017-Aug-16 08:26N 36°01' W 005°27'23310.4
2017-Aug-15 10:02N 37°30' W 000°58'210.3
2017-Aug-15 09:53N 37°31' W 000°56'410.3
2017-Aug-15 09:29N 37°32' W 000°51'510.9
2017-Aug-15 09:01N 37°34' W 000°45'611.2
2017-Aug-15 08:31N 37°37' W 000°39'510.3
2017-Aug-15 08:00N 37°41' W 000°35'510.5
2017-Aug-15 07:31N 37°46' W 000°33'610.6
2017-Aug-15 06:59N 37°52' W 000°31'510.6
2017-Aug-15 06:30N 37°57' W 000°29'510.5
2017-Aug-15 06:00N 38°02' W 000°28'810.5
2017-Aug-15 05:16N 38°09' W 000°25'12 0.8
2017-Aug-14 14:59N 38°20' W 000°29'0 0.0
2017-Aug-14 14:21N 38°20' W 000°29'0 0.0
2017-Aug-14 12:45N 38°20' W 000°29'121 4.6
2017-Aug-13 10:07N 39°14' E 001°50'211.0
2017-Aug-13 09:58N 39°15' E 001°52'510.9
2017-Aug-13 09:30N 39°17' E 001°58'510.9
2017-Aug-13 09:01N 39°19' E 002°04'510.8
2017-Aug-13 08:31N 39°21' E 002°11'510.8
2017-Aug-13 08:01N 39°23' E 002°18'510.7
2017-Aug-13 07:30N 39°25' E 002°24'13 1.0
2017-Aug-12 18:38N 39°33' E 002°38'0 0.0
2017-Aug-12 18:30N 39°33' E 002°38'0 0.0
2017-Aug-12 18:01N 39°33' E 002°38'0 0.0
2017-Aug-12 17:30N 39°33' E 002°38'0 0.0
2017-Aug-12 17:01N 39°33' E 002°38'0 0.0
2017-Aug-12 16:31N 39°33' E 002°38'0 0.0
2017-Aug-12 16:00N 39°33' E 002°38'0 0.0
2017-Aug-12 15:30N 39°33' E 002°38'0 0.0
2017-Aug-12 15:00N 39°33' E 002°38'0 0.0
2017-Aug-12 14:31N 39°33' E 002°38'0 0.0
2017-Aug-12 14:00N 39°33' E 002°38'0 0.0
2017-Aug-12 13:30N 39°33' E 002°38'2 4.3
2017-Aug-12 13:00N 39°31' E 002°36'510.5
2017-Aug-12 12:30N 39°27' E 002°31'5 9.6
2017-Aug-12 12:00N 39°29' E 002°26'610.1
2017-Aug-12 11:22N 39°34' E 002°20'4 9.4
2017-Aug-12 10:59N 39°37' E 002°23'1 0.3
2017-Aug-12 09:08N 39°37' E 002°23'0 2.8
2017-Aug-12 09:00N 39°37' E 002°24'2 3.7
2017-Aug-12 08:30N 39°39' E 002°26'1 1.1
2017-Aug-12 08:00N 39°38' E 002°25'3 6.8
2017-Aug-12 07:30N 39°37' E 002°21'1 0.6
2017-Aug-12 06:01N 39°36' E 002°20'0 6.4
2017-Aug-12 06:00N 39°36' E 002°20'0 0.2
2017-Aug-12 05:30N 39°36' E 002°20'2 4.1
2017-Aug-12 05:00N 39°36' E 002°17'0 0.5
2017-Aug-12 04:30N 39°36' E 002°17'0 0.3
2017-Aug-12 04:00N 39°36' E 002°17'0 0.3
2017-Aug-12 03:30N 39°37' E 002°18'3 6.8
2017-Aug-12 03:00N 39°37' E 002°13'510.0
2017-Aug-12 02:30N 39°39' E 002°07'510.2
2017-Aug-12 02:00N 39°40' E 002°01'510.5
2017-Aug-12 01:29N 39°41' E 001°54'510.5
2017-Aug-12 01:00N 39°43' E 001°47'510.3
2017-Aug-12 00:30N 39°44' E 001°41'510.3
2017-Aug-12 00:00N 39°45' E 001°34'510.4
2017-Aug-11 23:29N 39°47' E 001°28'2510.2
2017-Aug-11 21:03N 39°53' E 000°56'110.0
2017-Aug-11 20:56N 39°53' E 000°55'12 1.4
2017-Aug-11 12:57N 39°53' E 000°40'  
2017-Aug-08 17:24N 39°54' E 000°41'31 2.2
2017-Aug-08 03:29N 39°58' E 000°01'0 0.0
2017-Aug-08 02:21N 39°58' E 000°01'0 0.0
2017-Aug-07 16:07N 39°58' E 000°01'25 3.4
2017-Aug-07 08:34N 39°50' E 000°33'0 1.3
2017-Aug-07 08:30N 39°50' E 000°32'  
Track history (hours):
 
Tides and Currents Weather Stations Pressure Air Temp Water Temp Dewpoint Dewpoint Depression Visibility Wind Speed Wind Dir Waves Ship Positions

Oceanographic research ship Emma Bardán (Spain)

Ship's website: http://www.mapa.es/es/pesca/pags/emma_web/index.htm

Last reported at 2017-Aug-17 01:23 UTC. Time now 2017-Aug-17 01:41 UTC.
Position N 36°44' W 008°51'.

Length 29 m; draft 3.7 m.

Type: . MMSI: 224756000.

Date/timePositionNaut miles runAvg speedWind from/ knotsBaromVisibWave heightAir tempDewpointWater temp
2017-Aug-17 01:23N 36°44' W 008°51'410.4
2017-Aug-17 01:00N 36°44' W 008°46'1010.8
2017-Aug-17 00:06N 36°44' W 008°34'110.2
2017-Aug-16 23:59N 36°44' W 008°32'510.8
2017-Aug-16 23:31N 36°44' W 008°26'610.9
2017-Aug-16 23:00N 36°44' W 008°19'610.8
2017-Aug-16 22:27N 36°44' W 008°12'710.9
2017-Aug-16 21:46N 36°44' W 008°02'310.6
2017-Aug-16 21:30N 36°44' W 007°59'130 9.9
2017-Aug-16 08:26N 36°01' W 005°27'23310.4
2017-Aug-15 10:02N 37°30' W 000°58'210.3
2017-Aug-15 09:53N 37°31' W 000°56'410.3
2017-Aug-15 09:29N 37°32' W 000°51'510.9
2017-Aug-15 09:01N 37°34' W 000°45'611.2
2017-Aug-15 08:31N 37°37' W 000°39'510.3
2017-Aug-15 08:00N 37°41' W 000°35'510.5
2017-Aug-15 07:31N 37°46' W 000°33'610.6
2017-Aug-15 06:59N 37°52' W 000°31'510.6
2017-Aug-15 06:30N 37°57' W 000°29'510.5
2017-Aug-15 06:00N 38°02' W 000°28'810.5
2017-Aug-15 05:16N 38°09' W 000°25'12 0.8
2017-Aug-14 14:59N 38°20' W 000°29'0 0.0
2017-Aug-14 14:21N 38°20' W 000°29'0 0.0
2017-Aug-14 12:45N 38°20' W 000°29'121 4.6
2017-Aug-13 10:07N 39°14' E 001°50'211.0
2017-Aug-13 09:58N 39°15' E 001°52'510.9
2017-Aug-13 09:30N 39°17' E 001°58'510.9
2017-Aug-13 09:01N 39°19' E 002°04'510.8
2017-Aug-13 08:31N 39°21' E 002°11'510.8
2017-Aug-13 08:01N 39°23' E 002°18'510.7
2017-Aug-13 07:30N 39°25' E 002°24'13 1.0
2017-Aug-12 18:38N 39°33' E 002°38'0 0.0
2017-Aug-12 18:30N 39°33' E 002°38'0 0.0
2017-Aug-12 18:01N 39°33' E 002°38'0 0.0
2017-Aug-12 17:30N 39°33' E 002°38'0 0.0
2017-Aug-12 17:01N 39°33' E 002°38'0 0.0
2017-Aug-12 16:31N 39°33' E 002°38'0 0.0
2017-Aug-12 16:00N 39°33' E 002°38'0 0.0
2017-Aug-12 15:30N 39°33' E 002°38'0 0.0
2017-Aug-12 15:00N 39°33' E 002°38'0 0.0
2017-Aug-12 14:31N 39°33' E 002°38'0 0.0
2017-Aug-12 14:00N 39°33' E 002°38'0 0.0
2017-Aug-12 13:30N 39°33' E 002°38'2 4.3
2017-Aug-12 13:00N 39°31' E 002°36'510.5
2017-Aug-12 12:30N 39°27' E 002°31'5 9.6
2017-Aug-12 12:00N 39°29' E 002°26'610.1
2017-Aug-12 11:22N 39°34' E 002°20'4 9.4
2017-Aug-12 10:59N 39°37' E 002°23'1 0.3
2017-Aug-12 09:08N 39°37' E 002°23'0 2.8
2017-Aug-12 09:00N 39°37' E 002°24'2 3.7
2017-Aug-12 08:30N 39°39' E 002°26'1 1.1
2017-Aug-12 08:00N 39°38' E 002°25'3 6.8
2017-Aug-12 07:30N 39°37' E 002°21'1 0.6
2017-Aug-12 06:01N 39°36' E 002°20'0 6.4
2017-Aug-12 06:00N 39°36' E 002°20'0 0.2
2017-Aug-12 05:30N 39°36' E 002°20'2 4.1
2017-Aug-12 05:00N 39°36' E 002°17'0 0.5
2017-Aug-12 04:30N 39°36' E 002°17'0 0.3
2017-Aug-12 04:00N 39°36' E 002°17'0 0.3
2017-Aug-12 03:30N 39°37' E 002°18'3 6.8
2017-Aug-12 03:00N 39°37' E 002°13'510.0
2017-Aug-12 02:30N 39°39' E 002°07'510.2
2017-Aug-12 02:00N 39°40' E 002°01'510.5
2017-Aug-12 01:29N 39°41' E 001°54'510.5
2017-Aug-12 01:00N 39°43' E 001°47'510.3
2017-Aug-12 00:30N 39°44' E 001°41'510.3
2017-Aug-12 00:00N 39°45' E 001°34'510.4
2017-Aug-11 23:29N 39°47' E 001°28'2510.2
2017-Aug-11 21:03N 39°53' E 000°56'110.0
2017-Aug-11 20:56N 39°53' E 000°55'12 1.4
2017-Aug-11 12:57N 39°53' E 000°40'  
2017-Aug-08 17:24N 39°54' E 000°41'31 2.2
2017-Aug-08 03:29N 39°58' E 000°01'0 0.0
2017-Aug-08 02:21N 39°58' E 000°01'0 0.0
2017-Aug-07 16:07N 39°58' E 000°01'25 3.4
2017-Aug-07 08:34N 39°50' E 000°33'0 1.3
2017-Aug-07 08:30N 39°50' E 000°32'  

Dump ship's entire track history